createdAt,value
2022-09-26T00:04:24.087Z,5.60
2022-09-26T00:06:55.934Z,5.50
2022-09-26T00:09:26.055Z,5.30
2022-09-26T00:11:54.943Z,5.60
2022-09-26T00:14:26.621Z,5.50
2022-09-26T00:16:55.146Z,5.60
2022-09-26T00:19:23.516Z,5.60
2022-09-26T00:21:51.940Z,5.40
2022-09-26T00:24:20.225Z,5.40
2022-09-26T00:26:48.001Z,5.70
2022-09-26T00:29:16.236Z,5.50
2022-09-26T00:31:47.601Z,5.50
2022-09-26T00:34:18.256Z,6.00
2022-09-26T00:36:46.301Z,6.20
2022-09-26T00:39:16.678Z,5.50
2022-09-26T00:41:45.941Z,5.50
2022-09-26T00:44:56.832Z,5.10
2022-09-26T00:47:27.235Z,5.50
2022-09-26T00:50:04.570Z,5.40
2022-09-26T00:52:45.164Z,5.10
2022-09-26T00:55:18.877Z,5.00
2022-09-26T00:57:53.290Z,5.30
2022-09-26T01:00:21.475Z,5.10
2022-09-26T01:02:52.517Z,5.20
2022-09-26T01:05:23.350Z,5.30
2022-09-26T01:10:21.105Z,4.90
2022-09-26T01:12:49.097Z,5.10
2022-09-26T01:15:17.170Z,5.70
2022-09-26T01:17:45.957Z,5.10
2022-09-26T01:20:36.556Z,5.10
2022-09-26T01:23:42.106Z,4.80
2022-09-26T01:26:12.936Z,5.30
2022-09-26T01:28:42.343Z,4.90
2022-09-26T01:32:16.708Z,5.60
2022-09-26T01:35:07.350Z,5.00
2022-09-26T01:37:49.058Z,5.10
2022-09-26T01:40:45.931Z,5.50
2022-09-26T01:43:34.353Z,5.60
2022-09-26T01:46:26.402Z,4.70
2022-09-26T01:49:02.443Z,5.50
2022-09-26T01:51:41.285Z,5.70
2022-09-26T01:54:17.922Z,4.80
2022-09-26T01:56:50.617Z,5.60
2022-09-26T01:59:29.052Z,5.10
2022-09-26T02:02:06.703Z,5.10
2022-09-26T02:04:41.383Z,5.10
2022-09-26T02:07:16.839Z,5.20
2022-09-26T02:09:52.009Z,5.80
2022-09-26T02:12:26.424Z,5.70
2022-09-26T02:14:58.359Z,5.50
2022-09-26T02:17:31.609Z,5.30
2022-09-26T02:20:05.558Z,5.90
2022-09-26T02:22:35.432Z,5.20
2022-09-26T02:25:04.731Z,4.90
2022-09-26T02:27:33.225Z,5.10
2022-09-26T02:30:01.782Z,4.80
2022-09-26T02:32:32.035Z,5.10
2022-09-26T02:35:01.335Z,5.30
2022-09-26T02:40:01.144Z,5.10
2022-09-26T02:42:36.730Z,5.00
2022-09-26T02:45:27.020Z,5.40
2022-09-26T02:48:08.235Z,5.40
2022-09-26T02:50:48.516Z,5.00
2022-09-26T02:53:38.401Z,4.80
2022-09-26T02:56:46.244Z,5.20
2022-09-26T02:59:26.788Z,4.90
2022-09-26T03:02:06.388Z,5.20
2022-09-26T03:04:34.564Z,5.20
2022-09-26T03:07:07.400Z,4.80
2022-09-26T03:09:37.279Z,4.60
2022-09-26T03:12:08.253Z,5.40
2022-09-26T03:14:42.229Z,7.80
2022-09-26T03:17:10.749Z,6.30
2022-09-26T03:19:45.952Z,5.50
2022-09-26T03:22:16.393Z,5.10
2022-09-26T03:24:46.161Z,5.10
2022-09-26T03:27:16.689Z,5.20
2022-09-26T03:29:46.480Z,5.20
2022-09-26T03:32:19.529Z,5.90
2022-09-26T03:34:47.421Z,6.30
2022-09-26T03:37:16.242Z,6.20
2022-09-26T03:39:44.968Z,6.20
2022-09-26T03:42:24.582Z,6.00
2022-09-26T03:44:53.896Z,6.60
2022-09-26T03:50:15.090Z,6.40
2022-09-26T03:52:43.196Z,7.00
2022-09-26T03:55:11.672Z,7.20
2022-09-26T03:57:39.744Z,8.40
2022-09-26T04:00:17.853Z,8.70
2022-09-26T04:02:46.646Z,11.70
2022-09-26T04:05:23.111Z,12.90
2022-09-26T04:07:51.036Z,13.30
2022-09-26T04:10:19.685Z,8.40
2022-09-26T04:12:47.588Z,8.00
2022-09-26T04:15:16.007Z,8.40
2022-09-26T04:17:44.588Z,9.40
2022-09-26T04:20:12.864Z,11.10
2022-09-26T04:22:42.045Z,13.20
2022-09-26T04:25:10.542Z,12.50
2022-09-26T04:27:39.035Z,11.50
2022-09-26T04:30:07.554Z,9.70
2022-09-26T04:32:39.749Z,8.90
2022-09-26T04:35:27.296Z,9.10
2022-09-26T04:37:55.267Z,8.00
2022-09-26T04:40:23.400Z,7.90
2022-09-26T04:43:11.407Z,7.40
2022-09-26T04:45:43.379Z,6.80
2022-09-26T04:48:11.798Z,7.00
2022-09-26T04:50:46.132Z,7.30
2022-09-26T04:53:14.106Z,7.70
2022-09-26T04:56:10.340Z,7.50
2022-09-26T04:58:38.885Z,6.80
2022-09-26T05:01:09.891Z,6.80
2022-09-26T05:03:49.700Z,7.20
2022-09-26T05:06:18.941Z,7.10
2022-09-26T05:08:47.789Z,7.60
2022-09-26T05:11:18.635Z,7.40
2022-09-26T05:13:51.250Z,6.90
2022-09-26T05:16:21.699Z,7.00
2022-09-26T05:18:52.098Z,7.90
2022-09-26T05:21:24.279Z,8.00
2022-09-26T05:24:11.120Z,8.10
2022-09-26T05:26:46.558Z,8.00
2022-09-26T05:29:26.309Z,8.30
2022-09-26T05:31:59.993Z,9.80
2022-09-26T05:34:28.661Z,8.50
2022-09-26T05:36:56.791Z,7.30
2022-09-26T05:39:43.416Z,7.30
2022-09-26T05:42:15.555Z,6.40
2022-09-26T05:44:44.080Z,7.30
2022-09-26T05:47:13.247Z,7.20
2022-09-26T05:49:41.823Z,7.70
2022-09-26T05:52:12.220Z,7.50
2022-09-26T05:54:40.345Z,7.80
2022-09-26T05:57:28.376Z,8.10
2022-09-26T05:59:58.263Z,7.90
2022-09-26T06:02:26.326Z,8.20
2022-09-26T06:05:06.283Z,8.30
2022-09-26T06:07:53.307Z,7.80
2022-09-26T06:10:40.361Z,7.60
2022-09-26T06:13:08.387Z,7.50
2022-09-26T06:15:55.249Z,6.80
2022-09-26T06:18:23.269Z,7.30
2022-09-26T06:20:51.445Z,8.50
2022-09-26T06:23:19.641Z,8.80
2022-09-26T06:25:49.223Z,8.00
2022-09-26T06:28:18.543Z,8.50
2022-09-26T06:30:46.899Z,7.40
2022-09-26T06:33:27.638Z,8.30
2022-09-26T06:36:18.171Z,7.90
2022-09-26T06:38:46.667Z,10.40
2022-09-26T06:41:17.912Z,12.70
2022-09-26T06:43:47.747Z,14.10
2022-09-26T06:46:47.507Z,13.10
2022-09-26T06:49:19.899Z,12.70
2022-09-26T06:51:50.012Z,14.60
2022-09-26T06:54:19.003Z,14.90
2022-09-26T06:56:47.839Z,14.10
2022-09-26T06:59:17.531Z,13.90
2022-09-26T07:01:53.280Z,13.70
2022-09-26T07:04:40.923Z,12.20
2022-09-26T07:07:20.825Z,12.70
2022-09-26T07:09:48.999Z,11.70
2022-09-26T07:12:40.887Z,11.70
2022-09-26T07:15:09.313Z,11.30
2022-09-26T07:17:37.481Z,13.70
2022-09-26T07:20:37.876Z,12.20
2022-09-26T07:23:24.412Z,12.80
2022-09-26T07:25:53.168Z,11.40
2022-09-26T07:28:21.374Z,11.90
2022-09-26T07:30:50.978Z,10.40
2022-09-26T07:33:40.348Z,10.70
2022-09-26T07:36:12.730Z,10.70
2022-09-26T07:38:42.851Z,10.20
2022-09-26T07:41:11.439Z,10.70
2022-09-26T07:44:34.633Z,9.90
2022-09-26T07:46:50.245Z,9.40
2022-09-26T07:49:37.599Z,8.90
2022-09-26T07:52:32.232Z,7.30
2022-09-26T07:55:28.230Z,7.50
2022-09-26T07:58:02.114Z,7.80
2022-09-26T08:00:56.297Z,7.90
2022-09-26T08:03:48.162Z,8.10
2022-09-26T08:06:38.725Z,7.90
2022-09-26T08:09:08.117Z,6.50
2022-09-26T08:11:56.065Z,7.00
2022-09-26T08:14:42.978Z,6.20
2022-09-26T08:17:28.454Z,7.00
2022-09-26T08:19:56.991Z,7.80
2022-09-26T08:22:25.016Z,6.50
2022-09-26T08:24:55.533Z,6.90
2022-09-26T08:27:44.287Z,7.00
2022-09-26T08:30:13.679Z,6.60
2022-09-26T08:32:42.125Z,5.60
2022-09-26T08:35:14.911Z,5.50
2022-09-26T08:38:07.395Z,6.10
2022-09-26T08:41:13.133Z,6.90
2022-09-26T08:43:56.484Z,7.90
2022-09-26T08:47:02.866Z,8.50
2022-09-26T08:50:20.927Z,7.80
2022-09-26T08:53:05.757Z,6.90
2022-09-26T08:55:44.565Z,6.50
2022-09-26T08:58:28.934Z,7.40
2022-09-26T09:01:05.234Z,7.40
2022-09-26T09:03:53.789Z,8.30
2022-09-26T09:06:21.836Z,9.00
2022-09-26T09:08:56.436Z,8.30
2022-09-26T09:12:09.259Z,8.10
2022-09-26T09:15:20.428Z,7.60
2022-09-26T09:18:45.108Z,7.10
2022-09-26T09:22:14.900Z,7.30
2022-09-26T09:25:04.945Z,6.00
2022-09-26T09:28:07.917Z,6.00
2022-09-26T09:30:38.567Z,5.40
2022-09-26T09:33:29.696Z,6.10
2022-09-26T09:36:21.197Z,6.20
2022-09-26T09:39:41.431Z,6.40
2022-09-26T09:42:26.132Z,6.10
2022-09-26T09:45:22.387Z,6.60
2022-09-26T09:47:50.516Z,6.80
2022-09-26T09:50:42.688Z,6.50
2022-09-26T09:53:24.797Z,7.50
2022-09-26T09:56:22.353Z,7.30
2022-09-26T09:59:17.557Z,7.80
2022-09-26T10:02:48.177Z,6.60
2022-09-26T10:05:45.042Z,6.70
2022-09-26T10:08:28.668Z,6.50
2022-09-26T10:11:23.114Z,7.40
2022-09-26T10:14:03.411Z,7.90
2022-09-26T10:17:09.651Z,5.70
2022-09-26T10:20:53.809Z,6.00
2022-09-26T10:23:27.689Z,5.70
2022-09-26T10:26:03.496Z,6.20
2022-09-26T10:28:37.700Z,7.50
2022-09-26T10:31:11.278Z,7.40
2022-09-26T10:34:04.253Z,6.70
2022-09-26T10:36:38.101Z,6.10
2022-09-26T10:39:34.306Z,5.20
2022-09-26T10:42:04.255Z,7.00
2022-09-26T10:44:34.852Z,6.00
2022-09-26T10:47:08.738Z,6.30
2022-09-26T10:49:59.229Z,5.90
2022-09-26T10:53:09.635Z,6.20
2022-09-26T10:56:06.566Z,6.30
2022-09-26T10:58:41.973Z,5.90
2022-09-26T11:01:21.186Z,6.40
2022-09-26T11:03:50.468Z,5.60
2022-09-26T11:06:34.591Z,7.00
2022-09-26T11:09:18.243Z,5.70
2022-09-26T11:11:48.004Z,6.10
2022-09-26T11:14:28.460Z,6.20
2022-09-26T11:17:03.634Z,6.90
2022-09-26T11:19:42.757Z,7.20
2022-09-26T11:22:16.368Z,7.20
2022-09-26T11:25:11.778Z,6.00
2022-09-26T11:27:46.838Z,5.20
2022-09-26T11:30:21.750Z,4.40
2022-09-26T11:33:12.268Z,5.10
2022-09-26T11:36:18.191Z,5.40
2022-09-26T11:38:50.896Z,6.90
2022-09-26T11:41:36.583Z,6.60
2022-09-26T11:44:17.572Z,5.30
2022-09-26T11:47:10.084Z,5.20
2022-09-26T11:49:59.423Z,4.50
2022-09-26T11:53:19.800Z,4.60
2022-09-26T11:56:10.250Z,3.40
2022-09-26T11:58:59.334Z,4.10
2022-09-26T12:01:39.109Z,4.80
2022-09-26T12:04:34.661Z,5.80
2022-09-26T12:07:20.834Z,4.80
2022-09-26T12:10:26.446Z,5.60
2022-09-26T12:13:03.461Z,5.50
2022-09-26T12:15:44.057Z,4.50
2022-09-26T12:18:22.525Z,4.90
2022-09-26T12:20:50.494Z,6.20
2022-09-26T12:23:36.731Z,5.80
2022-09-26T12:26:17.849Z,6.30
2022-09-26T12:29:00.194Z,6.20
2022-09-26T12:31:48.977Z,7.40
2022-09-26T12:34:28.952Z,7.80
2022-09-26T12:37:19.013Z,5.60
2022-09-26T12:40:09.461Z,6.50
2022-09-26T12:48:00.534Z,5.60
2022-09-26T12:51:16.502Z,5.00
2022-09-26T12:54:09.200Z,4.80
2022-09-26T12:56:59.067Z,5.40
2022-09-26T12:59:52.840Z,5.10
2022-09-26T13:02:23.708Z,5.40
2022-09-26T13:05:16.941Z,5.80
2022-09-26T13:07:48.070Z,6.20
2022-09-26T13:10:35.017Z,5.30
2022-09-26T13:13:11.695Z,4.80
2022-09-26T13:16:13.429Z,4.90
2022-09-26T13:18:47.568Z,5.00
2022-09-26T13:21:24.913Z,5.50
2022-09-26T13:24:00.375Z,12.10
2022-09-26T13:26:43.908Z,45.60
2022-09-26T13:29:27.131Z,10.10
2022-09-26T13:32:22.956Z,7.10
2022-09-26T13:35:02.086Z,8.00
2022-09-26T13:37:41.418Z,10.60
2022-09-26T13:40:37.130Z,9.20
2022-09-26T13:43:35.522Z,5.30
2022-09-26T13:46:31.926Z,11.50
2022-09-26T13:49:27.952Z,10.60
2022-09-26T13:52:34.453Z,11.70
2022-09-26T13:55:20.029Z,7.30
2022-09-26T13:57:49.962Z,7.30
2022-09-26T14:00:17.918Z,7.50
2022-09-26T14:03:11.128Z,8.50
2022-09-26T14:05:42.225Z,10.20
2022-09-26T14:08:43.870Z,10.10
2022-09-26T14:11:32.636Z,10.80
2022-09-26T14:14:26.510Z,14.10
2022-09-26T14:17:03.049Z,22.40
2022-09-26T14:19:41.359Z,19.80
2022-09-26T14:22:21.548Z,14.00
2022-09-26T14:24:53.815Z,9.70
2022-09-26T14:27:42.241Z,6.50
2022-09-26T14:30:30.311Z,8.00
2022-09-26T14:33:02.672Z,7.60
2022-09-26T14:35:33.822Z,7.40
2022-09-26T14:38:17.306Z,7.40
2022-09-26T14:40:57.999Z,6.10
2022-09-26T14:43:30.420Z,8.30
2022-09-26T14:46:05.914Z,9.30
2022-09-26T14:48:40.303Z,8.20
2022-09-26T14:51:11.290Z,15.30
2022-09-26T14:53:53.239Z,11.70
2022-09-26T14:56:30.064Z,10.20
2022-09-26T14:59:35.632Z,9.90
2022-09-26T15:02:31.719Z,9.60
2022-09-26T15:05:11.587Z,11.20
2022-09-26T15:07:49.229Z,11.10
2022-09-26T15:10:21.968Z,8.20
2022-09-26T15:13:11.024Z,8.00
2022-09-26T15:15:44.744Z,8.90
2022-09-26T15:18:38.918Z,8.50
2022-09-26T15:21:18.861Z,9.20
2022-09-26T15:23:53.264Z,10.50
2022-09-26T15:26:28.525Z,13.50
2022-09-26T15:28:58.406Z,15.60
2022-09-26T15:31:36.876Z,16.60
2022-09-26T15:34:19.239Z,16.80
2022-09-26T15:36:56.623Z,18.10
2022-09-26T15:39:31.060Z,10.40
2022-09-26T15:42:20.535Z,20.20
2022-09-26T15:44:59.665Z,13.70
2022-09-26T15:47:31.736Z,7.40
2022-09-26T15:50:10.786Z,11.40
2022-09-26T15:52:51.288Z,10.20
2022-09-26T15:55:27.095Z,12.30
2022-09-26T15:57:59.270Z,10.40
2022-09-26T16:00:34.039Z,12.30
2022-09-26T16:03:19.986Z,11.00
2022-09-26T16:05:49.464Z,10.20
2022-09-26T16:08:24.635Z,10.90
2022-09-26T16:10:57.424Z,10.70
2022-09-26T16:13:30.621Z,12.10
2022-09-26T16:16:21.618Z,11.90
2022-09-26T16:18:56.069Z,12.10
2022-09-26T16:21:27.517Z,10.10
2022-09-26T16:23:58.274Z,9.40
2022-09-26T16:29:08.501Z,10.10
2022-09-26T16:31:48.933Z,10.30
2022-09-26T16:34:23.179Z,7.70
2022-09-26T16:36:51.331Z,10.80
2022-09-26T16:39:31.054Z,11.40
2022-09-26T16:42:06.096Z,11.90
2022-09-26T16:44:41.175Z,12.30
2022-09-26T16:47:29.971Z,12.50
2022-09-26T16:50:30.486Z,14.20
2022-09-26T16:52:59.562Z,21.80
2022-09-26T16:55:27.928Z,18.40
2022-09-26T16:58:04.347Z,13.60
2022-09-26T17:00:53.524Z,16.50
2022-09-26T17:03:31.318Z,18.80
2022-09-26T17:06:00.417Z,18.90
2022-09-26T17:08:28.784Z,19.40
2022-09-26T17:11:02.831Z,20.50
2022-09-26T17:13:34.074Z,18.60
2022-09-26T17:16:03.791Z,17.30
2022-09-26T17:21:02.575Z,19.60
2022-09-26T17:23:40.471Z,19.90
2022-09-26T17:26:23.936Z,22.30
2022-09-26T17:28:53.484Z,31.80
2022-09-26T17:31:21.602Z,28.80
2022-09-26T17:33:53.478Z,38.10
2022-09-26T17:36:24.681Z,35.60
2022-09-26T17:38:53.709Z,31.10
2022-09-26T17:41:23.166Z,26.70
2022-09-26T17:44:00.508Z,22.80
2022-09-26T17:46:29.079Z,24.30
2022-09-26T17:48:57.310Z,28.60
2022-09-26T17:51:26.000Z,28.40
2022-09-26T17:53:57.595Z,27.00
2022-09-26T17:56:26.656Z,27.00
2022-09-26T17:58:57.036Z,28.70
2022-09-26T18:01:27.052Z,28.30
2022-09-26T18:04:00.040Z,23.10
2022-09-26T18:06:32.841Z,22.70
2022-09-26T18:09:07.552Z,23.10
2022-09-26T18:11:37.412Z,23.20
2022-09-26T18:14:06.909Z,23.50
2022-09-26T18:16:35.371Z,26.60
2022-09-26T18:19:07.409Z,30.70
2022-09-26T18:21:36.446Z,47.70
2022-09-26T18:24:10.416Z,51.90
2022-09-26T18:26:47.436Z,51.20
2022-09-26T18:29:30.047Z,46.40
2022-09-26T18:31:59.539Z,41.00
2022-09-26T18:34:27.921Z,41.60
2022-09-26T18:37:00.620Z,46.30
2022-09-26T18:39:30.615Z,42.40
2022-09-26T18:42:02.607Z,41.30
2022-09-26T18:44:35.309Z,40.40
2022-09-26T18:47:16.334Z,34.00
2022-09-26T18:49:46.952Z,31.90
2022-09-26T18:52:17.906Z,30.50
2022-09-26T18:54:46.086Z,31.60
2022-09-26T18:57:49.676Z,27.40
2022-09-26T19:00:17.776Z,31.90
2022-09-26T19:02:45.931Z,31.50
2022-09-26T19:05:16.652Z,35.00
2022-09-26T19:10:17.618Z,42.50
2022-09-26T19:12:45.882Z,38.10
2022-09-26T19:15:15.837Z,34.50
2022-09-26T19:17:43.665Z,29.40
2022-09-26T19:20:11.642Z,28.30
2022-09-26T19:22:39.624Z,30.80
2022-09-26T19:25:10.091Z,30.20
2022-09-26T19:27:50.439Z,28.90
2022-09-26T19:30:24.599Z,31.10
2022-09-26T19:32:54.447Z,32.50
2022-09-26T19:35:32.097Z,33.10
2022-09-26T19:38:02.143Z,52.20
2022-09-26T19:40:30.290Z,52.50
2022-09-26T19:42:58.982Z,48.60
2022-09-26T19:45:27.114Z,48.20
2022-09-26T19:47:56.355Z,44.50
2022-09-26T19:50:26.581Z,44.10
2022-09-26T19:52:58.543Z,39.40
2022-09-26T19:55:30.479Z,37.20
2022-09-26T19:58:21.813Z,41.30
2022-09-26T20:00:56.544Z,49.40
2022-09-26T20:03:40.023Z,51.70
2022-09-26T20:06:23.636Z,53.50
2022-09-26T20:08:59.068Z,48.90
2022-09-26T20:11:29.685Z,45.20
2022-09-26T20:14:16.555Z,44.00
2022-09-26T20:16:44.797Z,44.70
2022-09-26T20:19:21.813Z,41.70
2022-09-26T20:21:49.924Z,37.70
2022-09-26T20:24:19.161Z,40.10
2022-09-26T20:26:48.288Z,41.00
2022-09-26T20:29:17.318Z,43.00
2022-09-26T20:31:47.627Z,42.60
2022-09-26T20:34:17.169Z,38.30
2022-09-26T20:36:48.992Z,36.50
2022-09-26T20:39:24.044Z,34.50
2022-09-26T20:41:52.877Z,35.20
2022-09-26T20:44:28.025Z,34.20
2022-09-26T20:47:04.769Z,36.10
2022-09-26T20:49:43.508Z,36.00
2022-09-26T20:52:20.818Z,36.60
2022-09-26T20:54:49.203Z,36.50
2022-09-26T20:57:17.730Z,37.60
2022-09-26T20:59:48.454Z,34.50
2022-09-26T21:02:28.913Z,33.70
2022-09-26T21:05:00.332Z,33.40
2022-09-26T21:07:31.311Z,31.00
2022-09-26T21:12:27.323Z,29.50
2022-09-26T21:14:55.288Z,28.10
2022-09-26T21:17:28.149Z,30.50
2022-09-26T21:19:56.550Z,30.20
2022-09-26T21:22:43.564Z,31.90
2022-09-26T21:25:16.039Z,31.20
2022-09-26T21:27:51.180Z,28.30
2022-09-26T21:30:20.119Z,29.10
2022-09-26T21:32:51.625Z,27.80
2022-09-26T21:35:20.954Z,28.40
2022-09-26T21:37:54.882Z,27.50
2022-09-26T21:40:26.350Z,29.70
2022-09-26T21:43:04.282Z,30.50
2022-09-26T21:45:32.861Z,30.40
2022-09-26T21:48:01.034Z,29.90
2022-09-26T21:50:29.550Z,28.60
2022-09-26T21:53:05.368Z,29.10
2022-09-26T21:55:37.298Z,29.30
2022-09-26T21:58:09.706Z,27.40
2022-09-26T22:00:37.880Z,27.00
2022-09-26T22:03:07.124Z,26.80
2022-09-26T22:05:35.252Z,25.80
2022-09-26T22:08:03.878Z,25.80
2022-09-26T22:10:32.114Z,26.20
2022-09-26T22:12:59.947Z,28.00
2022-09-26T22:15:27.858Z,27.00
2022-09-26T22:17:55.815Z,30.20
2022-09-26T22:20:24.086Z,30.90
2022-09-26T22:22:52.157Z,31.70
2022-09-26T22:25:20.154Z,29.90
2022-09-26T22:27:48.193Z,29.30
2022-09-26T22:30:16.263Z,28.10
2022-09-26T22:32:44.424Z,27.80
2022-09-26T22:35:12.305Z,30.80
2022-09-26T22:37:40.325Z,30.80
2022-09-26T22:40:09.059Z,31.50
2022-09-26T22:42:37.465Z,30.30
2022-09-26T22:45:06.022Z,29.80
2022-09-26T22:47:34.400Z,29.10
2022-09-26T22:50:02.577Z,28.60
2022-09-26T22:52:30.647Z,28.80
2022-09-26T22:54:58.723Z,27.00
2022-09-26T22:57:26.810Z,28.20
2022-09-26T22:59:54.674Z,29.60
2022-09-26T23:02:22.623Z,30.30
2022-09-26T23:04:50.963Z,31.80
2022-09-26T23:07:20.095Z,31.30
2022-09-26T23:09:48.059Z,30.10
2022-09-26T23:12:16.114Z,28.10
2022-09-26T23:14:44.305Z,29.20
2022-09-26T23:17:12.618Z,27.30
2022-09-26T23:19:41.442Z,26.60
2022-09-26T23:22:09.336Z,25.00
2022-09-26T23:24:37.721Z,24.20
2022-09-26T23:27:05.590Z,24.70
2022-09-26T23:29:33.551Z,24.40
2022-09-26T23:32:01.649Z,23.80
2022-09-26T23:34:29.794Z,23.50
2022-09-26T23:36:57.788Z,24.50
2022-09-26T23:39:25.729Z,28.60
2022-09-26T23:41:53.980Z,29.70
2022-09-26T23:44:22.174Z,30.90
2022-09-26T23:46:50.102Z,30.80
2022-09-26T23:49:18.117Z,31.10
2022-09-26T23:51:47.825Z,31.40
2022-09-26T23:54:15.899Z,31.90
2022-09-26T23:56:43.969Z,29.20
2022-09-26T23:59:11.888Z,28.20
